createdAt,value
2022-08-22T00:00:18.505Z,100311.42
2022-08-22T00:03:01.247Z,100264.05
2022-08-22T00:03:04.819Z,100275.91
2022-08-22T00:06:26.448Z,100309.38
2022-08-22T00:09:30.254Z,100305.14
2022-08-22T00:12:29.959Z,100304.29
2022-08-22T00:15:41.872Z,100302.21
2022-08-22T00:18:44.235Z,100304.14
2022-08-22T00:21:33.095Z,100301.03
2022-08-22T00:24:20.183Z,100303.14
2022-08-22T00:27:05.899Z,100299.91
2022-08-22T00:30:11.506Z,100300.73
2022-08-22T00:32:53.521Z,100300.07
2022-08-22T00:35:45.478Z,100302.56
2022-08-22T00:38:41.375Z,100297.70
2022-08-22T00:41:21.683Z,100299.63
2022-08-22T00:44:51.375Z,100302.25
2022-08-22T00:48:04.190Z,100303.50
2022-08-22T00:51:09.677Z,100299.32
2022-08-22T00:53:42.019Z,100300.10
2022-08-22T00:56:36.257Z,100302.58
2022-08-22T00:59:23.704Z,100303.86
2022-08-22T01:02:22.016Z,100307.30
2022-08-22T01:05:05.211Z,100310.67
2022-08-22T01:08:25.329Z,100313.89
2022-08-22T01:11:24.644Z,100314.99
2022-08-22T01:14:34.794Z,100309.85
2022-08-22T01:17:42.078Z,100306.23
2022-08-22T01:20:46.423Z,100305.95
2022-08-22T01:23:40.523Z,100311.64
2022-08-22T01:26:40.511Z,100314.61
2022-08-22T01:29:40.054Z,100316.75
2022-08-22T01:32:49.258Z,100316.10
2022-08-22T01:36:02.436Z,100313.80
2022-08-22T01:39:15.324Z,100311.70
2022-08-22T01:42:24.780Z,100311.31
2022-08-22T01:45:19.002Z,100313.40
2022-08-22T01:48:20.566Z,100315.49
2022-08-22T01:51:21.356Z,100315.36
2022-08-22T01:54:24.468Z,100315.52
2022-08-22T01:57:01.655Z,100320.30
2022-08-22T01:59:43.392Z,100324.29
2022-08-22T02:02:48.148Z,100325.21
2022-08-22T02:05:17.359Z,100327.10
2022-08-22T02:08:18.233Z,100328.52
2022-08-22T02:11:12.082Z,100328.71
2022-08-22T02:14:31.851Z,100328.13
2022-08-22T02:17:20.876Z,100327.92
2022-08-22T02:20:21.053Z,100322.14
2022-08-22T02:23:06.934Z,100319.52
2022-08-22T02:25:46.746Z,100320.55
2022-08-22T02:28:57.168Z,100319.77
2022-08-22T02:31:41.882Z,100319.86
2022-08-22T02:34:38.555Z,100321.77
2022-08-22T02:37:35.039Z,100321.27
2022-08-22T02:40:28.325Z,100323.34
2022-08-22T02:43:20.859Z,100327.19
2022-08-22T02:46:05.780Z,100328.02
2022-08-22T02:49:15.220Z,100322.73
2022-08-22T02:52:19.341Z,100327.73
2022-08-22T02:55:14.122Z,100326.30
2022-08-22T02:57:53.409Z,100331.20
2022-08-22T03:01:03.423Z,100331.96
2022-08-22T03:03:41.463Z,100330.90
2022-08-22T03:06:35.066Z,100333.71
2022-08-22T03:09:14.341Z,100334.91
2022-08-22T03:11:49.740Z,100337.02
2022-08-22T03:14:43.674Z,100340.46
2022-08-22T03:17:29.310Z,100340.05
2022-08-22T03:20:38.849Z,100341.39
2022-08-22T03:23:17.849Z,100339.44
2022-08-22T03:25:51.884Z,100345.34
2022-08-22T03:29:00.931Z,100344.77
2022-08-22T03:31:32.427Z,100345.43
2022-08-22T03:34:23.124Z,100344.77
2022-08-22T03:37:35.939Z,100342.27
2022-08-22T03:40:29.735Z,100341.64
2022-08-22T03:43:31.552Z,100340.42
2022-08-22T03:46:32.019Z,100344.31
2022-08-22T03:49:15.946Z,100350.33
2022-08-22T03:52:12.029Z,100352.00
2022-08-22T03:54:49.540Z,100359.17
2022-08-22T03:58:27.559Z,100355.64
2022-08-22T04:01:56.769Z,100357.93
2022-08-22T04:05:02.868Z,100363.92
2022-08-22T04:07:56.044Z,100368.48
2022-08-22T04:10:51.955Z,100370.71
2022-08-22T04:13:39.189Z,100376.84
2022-08-22T04:16:49.710Z,100378.74
2022-08-22T04:19:37.332Z,100378.35
2022-08-22T04:22:24.110Z,100373.67
2022-08-22T04:25:14.480Z,100378.27
2022-08-22T04:28:06.879Z,100376.10
2022-08-22T04:31:01.786Z,100379.67
2022-08-22T04:34:28.959Z,100383.52
2022-08-22T04:37:10.871Z,100374.31
2022-08-22T04:39:55.793Z,100374.02
2022-08-22T04:42:43.036Z,100373.34
2022-08-22T04:45:32.373Z,100370.30
2022-08-22T04:48:27.190Z,100368.59
2022-08-22T04:51:16.901Z,100369.86
2022-08-22T04:54:06.967Z,100371.50
2022-08-22T04:57:15.586Z,100371.05
2022-08-22T04:59:44.792Z,100373.60
2022-08-22T05:02:24.255Z,100372.05
2022-08-22T05:05:04.338Z,100374.10
2022-08-22T05:07:41.516Z,100376.59
2022-08-22T05:10:49.052Z,100379.09
2022-08-22T05:13:39.786Z,100374.61
2022-08-22T05:16:19.582Z,100373.62
2022-08-22T05:18:55.769Z,100373.05
2022-08-22T05:21:32.547Z,100379.67
2022-08-22T05:24:11.549Z,100385.41
2022-08-22T05:26:50.821Z,100389.84
2022-08-22T05:29:25.424Z,100390.58
2022-08-22T05:32:07.893Z,100392.86
2022-08-22T05:34:42.192Z,100396.81
2022-08-22T05:37:34.553Z,100396.80
2022-08-22T05:40:03.989Z,100393.85
2022-08-22T05:42:37.741Z,100397.70
2022-08-22T05:45:12.126Z,100401.59
2022-08-22T05:48:03.439Z,100399.56
2022-08-22T05:51:13.863Z,100396.55
2022-08-22T05:53:48.619Z,100392.55
2022-08-22T05:56:37.769Z,100389.59
2022-08-22T05:59:30.587Z,100394.39
2022-08-22T06:02:13.162Z,100402.02
2022-08-22T06:05:01.230Z,100401.48
2022-08-22T06:07:46.837Z,100397.27
2022-08-22T06:10:48.126Z,100397.22
2022-08-22T06:13:32.402Z,100394.85
2022-08-22T06:16:23.197Z,100396.41
2022-08-22T06:18:53.164Z,100400.39
2022-08-22T06:21:39.251Z,100395.45
2022-08-22T06:24:16.912Z,100398.34
2022-08-22T06:26:49.132Z,100401.73
2022-08-22T06:29:30.478Z,100404.23
2022-08-22T06:32:04.242Z,100404.66
2022-08-22T06:34:39.533Z,100400.25
2022-08-22T06:37:17.153Z,100405.52
2022-08-22T06:39:51.193Z,100406.55
2022-08-22T06:42:26.124Z,100407.35
2022-08-22T06:45:08.372Z,100405.38
2022-08-22T06:47:50.125Z,100407.70
2022-08-22T06:50:26.284Z,100407.94
2022-08-22T06:53:45.938Z,100405.91
2022-08-22T06:56:26.786Z,100405.69
2022-08-22T06:59:04.255Z,100408.00
2022-08-22T07:01:47.022Z,100408.75
2022-08-22T07:04:16.670Z,100407.25
2022-08-22T07:06:51.058Z,100403.81
2022-08-22T07:09:35.188Z,100403.40
2022-08-22T07:12:16.811Z,100405.63
2022-08-22T07:14:50.513Z,100402.08
2022-08-22T07:17:29.244Z,100401.14
2022-08-22T07:20:17.561Z,100406.19
2022-08-22T07:23:32.002Z,100403.51
2022-08-22T07:26:56.656Z,100404.50
2022-08-22T07:29:54.734Z,100400.95
2022-08-22T07:32:49.686Z,100401.77
2022-08-22T07:35:26.364Z,100404.09
2022-08-22T07:38:35.188Z,100401.45
2022-08-22T07:41:23.754Z,100400.83
2022-08-22T07:44:11.141Z,100397.18
2022-08-22T07:47:00.934Z,100397.93
2022-08-22T07:50:03.945Z,100399.82
2022-08-22T07:52:43.073Z,100396.23
2022-08-22T07:55:26.716Z,100397.15
2022-08-22T07:58:06.061Z,100395.84
2022-08-22T08:00:41.414Z,100397.82
2022-08-22T08:03:11.867Z,100399.53
2022-08-22T08:05:45.194Z,100397.81
2022-08-22T08:08:26.608Z,100393.02
2022-08-22T08:10:59.170Z,100391.08
2022-08-22T08:13:39.903Z,100393.21
2022-08-22T08:16:18.128Z,100393.83
2022-08-22T08:18:51.458Z,100389.46
2022-08-22T08:29:11.354Z,100379.83
2022-08-22T08:37:15.487Z,100376.84
2022-08-22T08:39:52.025Z,100377.18
2022-08-22T08:43:10.642Z,100380.00
2022-08-22T08:46:16.770Z,100381.39
2022-08-22T08:48:53.893Z,100381.08
2022-08-22T08:51:47.629Z,100373.45
2022-08-22T08:54:36.231Z,100374.89
2022-08-22T08:57:37.332Z,100372.52
2022-08-22T09:00:50.645Z,100365.52
2022-08-22T11:30:18.740Z,100307.26
2022-08-22T11:33:13.640Z,100304.94
2022-08-22T11:35:45.305Z,100301.13
2022-08-22T11:38:36.272Z,100298.30
2022-08-22T11:41:30.020Z,100293.61
2022-08-22T11:44:22.414Z,100291.42
2022-08-22T11:46:58.098Z,100295.55
2022-08-22T11:49:33.099Z,100299.50
2022-08-22T11:52:30.928Z,100303.34
2022-08-22T11:55:21.911Z,100305.09
2022-08-22T11:58:28.672Z,100301.77
2022-08-22T12:01:28.080Z,100296.95
2022-08-22T12:04:12.744Z,100283.10
2022-08-22T12:06:56.729Z,100283.86
2022-08-22T12:09:41.467Z,100283.60
2022-08-22T12:12:46.581Z,100278.37
2022-08-22T12:15:24.606Z,100271.20
2022-08-22T12:18:34.023Z,100272.18
2022-08-22T12:21:21.469Z,100272.19
2022-08-22T12:24:06.021Z,100272.46
2022-08-22T12:27:07.766Z,100267.54
2022-08-22T12:30:12.909Z,100265.23
2022-08-22T12:33:09.901Z,100266.59
2022-08-22T12:36:06.406Z,100262.80
2022-08-22T12:39:05.765Z,100262.98
2022-08-22T12:42:11.328Z,100260.20
2022-08-22T12:45:14.318Z,100258.07
2022-08-22T12:48:09.106Z,100255.42
2022-08-22T12:51:18.964Z,100254.78
2022-08-22T12:54:27.251Z,100258.55
2022-08-22T12:57:50.476Z,100253.72
2022-08-22T13:00:45.440Z,100243.81
2022-08-22T13:03:29.661Z,100237.42
2022-08-22T13:06:05.118Z,100235.33
2022-08-22T13:08:45.801Z,100239.05
2022-08-22T13:11:23.321Z,100239.92
2022-08-22T13:14:00.643Z,100246.77
2022-08-22T13:16:48.948Z,100244.48
2022-08-22T13:19:28.017Z,100247.59
2022-08-22T13:22:02.487Z,100248.34
2022-08-22T13:24:56.939Z,100247.06
2022-08-22T13:33:10.325Z,100246.98
2022-08-22T13:35:44.700Z,100250.55
2022-08-22T13:38:54.171Z,100249.89
2022-08-22T13:41:31.203Z,100245.18
2022-08-22T13:44:09.417Z,100249.31
2022-08-22T13:46:57.952Z,100251.79
2022-08-22T13:49:42.419Z,100257.23
2022-08-22T13:52:37.921Z,100262.00
2022-08-22T13:55:17.910Z,100265.47
2022-08-22T13:57:56.883Z,100270.39
2022-08-22T14:01:05.990Z,100274.25
2022-08-22T14:03:59.604Z,100281.40
2022-08-22T14:06:41.484Z,100285.26
2022-08-22T14:09:31.385Z,100285.89
2022-08-22T14:12:21.265Z,100286.90
2022-08-22T14:15:02.508Z,100282.52
2022-08-22T14:17:42.868Z,100280.94
2022-08-22T14:20:32.410Z,100279.69
2022-08-22T14:23:18.213Z,100277.98
2022-08-22T14:25:47.949Z,100274.70
2022-08-22T14:28:33.592Z,100272.25
2022-08-22T14:31:13.696Z,100273.10
2022-08-22T14:33:52.060Z,100274.20
2022-08-22T14:36:47.619Z,100271.83
2022-08-22T14:39:42.778Z,100277.66
2022-08-22T14:42:26.644Z,100281.27
2022-08-22T14:45:25.146Z,100284.34
2022-08-22T14:48:32.609Z,100285.61
2022-08-22T14:51:11.018Z,100280.40
2022-08-22T14:53:40.748Z,100280.17
2022-08-22T14:56:21.886Z,100279.05
2022-08-22T14:59:02.739Z,100276.55
2022-08-22T15:01:49.774Z,100274.16
2022-08-22T15:04:41.206Z,100274.85
2022-08-22T15:07:12.837Z,100276.30
2022-08-22T15:09:57.752Z,100277.84
2022-08-22T15:12:40.632Z,100280.14
2022-08-22T15:15:27.338Z,100283.86
2022-08-22T15:17:56.576Z,100286.59
2022-08-22T15:20:38.186Z,100286.49
2022-08-22T15:23:23.767Z,100288.86
2022-08-22T15:26:04.200Z,100288.23
2022-08-22T15:28:49.762Z,100286.48
2022-08-22T15:31:22.933Z,100286.27
2022-08-22T15:33:53.279Z,100281.36
2022-08-22T15:36:26.677Z,100277.17
2022-08-22T15:39:17.091Z,100276.87
2022-08-22T15:41:51.130Z,100272.02
2022-08-22T15:44:32.255Z,100273.92
2022-08-22T15:47:35.014Z,100270.57
2022-08-22T15:50:14.688Z,100271.67
2022-08-22T15:56:29.582Z,100273.81
2022-08-22T15:59:53.623Z,100278.48
2022-08-22T16:02:36.869Z,100285.27
2022-08-22T16:05:12.167Z,100293.84
2022-08-22T16:08:16.289Z,100296.39
2022-08-22T16:11:14.682Z,100296.84
2022-08-22T16:13:46.495Z,100303.23
2022-08-22T16:16:27.577Z,100310.52
2022-08-22T16:18:56.122Z,100313.73
2022-08-22T16:21:32.904Z,100320.23
2022-08-22T16:24:07.860Z,100326.28
2022-08-22T16:26:44.578Z,100327.13
2022-08-22T16:29:18.149Z,100325.85
2022-08-22T16:31:46.925Z,100325.67
2022-08-22T16:34:18.545Z,100327.91
2022-08-22T16:37:36.831Z,100329.38
2022-08-22T16:40:18.761Z,100329.55
2022-08-22T16:43:17.612Z,100325.56
2022-08-22T16:45:48.773Z,100327.34
2022-08-22T16:48:45.791Z,100330.73
2022-08-22T16:51:26.067Z,100329.52
2022-08-22T16:54:32.625Z,100328.69
2022-08-22T16:58:05.972Z,100323.58
2022-08-22T17:01:20.789Z,100331.06
2022-08-22T17:04:35.386Z,100335.59
2022-08-22T17:07:43.687Z,100336.45
2022-08-22T17:10:36.348Z,100342.09
2022-08-22T17:13:41.274Z,100346.95
2022-08-22T17:16:53.886Z,100353.82
2022-08-22T17:19:43.800Z,100369.92
2022-08-22T17:22:47.611Z,100384.27
2022-08-22T17:25:53.715Z,100385.03
2022-08-22T17:28:57.546Z,100377.71
2022-08-22T17:31:57.531Z,100379.61
2022-08-22T17:35:12.205Z,100387.11
2022-08-22T17:38:14.161Z,100398.27
2022-08-22T17:41:05.215Z,100394.30
2022-08-22T17:44:01.785Z,100386.88
2022-08-22T17:47:06.695Z,100378.23
2022-08-22T17:49:41.437Z,100388.52
2022-08-22T17:52:34.086Z,100394.92
2022-08-22T17:55:20.068Z,100391.92
2022-08-22T17:58:37.670Z,100387.66
2022-08-22T18:01:14.886Z,100392.84
2022-08-22T18:03:53.737Z,100392.48
2022-08-22T18:06:30.230Z,100388.67
2022-08-22T18:09:19.322Z,100395.20
2022-08-22T18:12:41.349Z,100393.08
2022-08-22T18:15:25.952Z,100398.92
2022-08-22T18:18:39.439Z,100403.92
2022-08-22T18:21:37.502Z,100413.27
2022-08-22T18:24:12.626Z,100423.30
2022-08-22T18:26:58.644Z,100428.13
2022-08-22T18:29:33.003Z,100425.45
2022-08-22T18:32:46.044Z,100425.80
2022-08-22T18:35:31.719Z,100426.80
2022-08-22T18:38:19.589Z,100428.54
2022-08-22T18:40:58.031Z,100442.59
2022-08-22T18:43:42.182Z,100461.41
2022-08-22T18:46:40.619Z,100467.90
2022-08-22T18:49:21.125Z,100452.99
2022-08-22T18:52:26.630Z,100429.80
2022-08-22T18:55:22.772Z,100419.34
2022-08-22T18:58:18.727Z,100428.41
2022-08-22T19:01:00.481Z,100456.84
2022-08-22T19:04:25.544Z,100512.16
2022-08-22T19:07:36.466Z,100531.59
2022-08-22T19:10:46.715Z,100523.04
2022-08-22T19:14:06.432Z,100508.83
2022-08-22T19:17:15.588Z,100517.27
2022-08-22T19:20:19.813Z,100532.67
2022-08-22T19:22:51.116Z,100543.17
2022-08-22T19:25:28.144Z,100541.34
2022-08-22T19:28:11.871Z,100534.98
2022-08-22T19:31:16.111Z,100524.15
2022-08-22T19:33:50.688Z,100523.05
2022-08-22T19:36:33.722Z,100515.98
2022-08-22T19:39:43.848Z,100496.52
2022-08-22T19:42:19.085Z,100482.98
2022-08-22T19:45:19.388Z,100485.61
2022-08-22T19:48:15.150Z,100497.55
2022-08-22T19:50:44.423Z,100510.83
2022-08-22T19:53:59.103Z,100520.06
2022-08-22T19:56:42.552Z,100543.71
2022-08-22T20:00:00.319Z,100592.95
2022-08-22T20:07:59.709Z,100581.07
2022-08-22T20:11:01.566Z,100530.30
2022-08-22T20:13:45.863Z,100501.67
2022-08-22T20:17:03.118Z,100476.75
2022-08-22T20:22:52.764Z,100448.52
2022-08-22T20:25:54.327Z,100474.93
2022-08-22T20:28:51.014Z,100489.41
2022-08-22T20:31:25.679Z,100509.95
2022-08-22T20:34:28.862Z,100545.91
2022-08-22T20:37:25.399Z,100553.27
2022-08-22T20:40:06.350Z,100544.96
2022-08-22T20:42:36.958Z,100526.75
2022-08-22T20:45:12.301Z,100515.68
2022-08-22T20:47:43.556Z,100499.48
2022-08-22T20:50:26.111Z,100486.12
2022-08-22T20:53:22.688Z,100472.69
2022-08-22T20:56:08.272Z,100459.42
2022-08-22T20:58:41.186Z,100438.88
2022-08-22T21:01:12.445Z,100450.15
2022-08-22T21:03:50.953Z,100459.60
2022-08-22T21:06:30.522Z,100468.39
2022-08-22T21:09:37.549Z,100499.58
2022-08-22T21:12:09.890Z,100526.67
2022-08-22T21:14:46.321Z,100529.77
2022-08-22T21:17:28.093Z,100524.84
2022-08-22T21:19:58.287Z,100514.52
2022-08-22T21:22:33.340Z,100507.44
2022-08-22T21:25:02.175Z,100490.23
2022-08-22T21:27:35.259Z,100480.16
2022-08-22T21:30:10.167Z,100462.26
2022-08-22T21:32:50.061Z,100455.01
2022-08-22T21:35:33.617Z,100465.98
2022-08-22T21:38:03.221Z,100474.69
2022-08-22T21:40:37.273Z,100478.27
2022-08-22T21:43:30.114Z,100479.34
2022-08-22T21:45:58.829Z,100478.69
2022-08-22T21:48:35.622Z,100471.24
2022-08-22T21:51:44.642Z,100468.48
2022-08-22T21:54:25.424Z,100474.90
2022-08-22T21:57:13.956Z,100483.01
2022-08-22T21:59:58.960Z,100484.73
2022-08-22T22:02:38.027Z,100484.77
2022-08-22T22:05:17.824Z,100480.86
2022-08-22T22:07:48.140Z,100480.27
2022-08-22T22:10:19.884Z,100477.90
2022-08-22T22:12:52.271Z,100473.57
2022-08-22T22:15:26.106Z,100472.09
2022-08-22T22:17:55.972Z,100472.77
2022-08-22T22:20:26.485Z,100471.45
2022-08-22T22:22:56.345Z,100469.08
2022-08-22T22:25:40.947Z,100474.08
2022-08-22T22:28:18.971Z,100479.21
2022-08-22T22:30:51.718Z,100481.33
2022-08-22T22:33:22.312Z,100484.07
2022-08-22T22:35:53.363Z,100487.06
2022-08-22T22:38:24.413Z,100489.05
2022-08-22T22:40:53.617Z,100497.16
2022-08-22T22:43:23.403Z,100496.30
2022-08-22T22:45:52.146Z,100500.46
2022-08-22T22:48:24.537Z,100503.66
2022-08-22T22:50:54.204Z,100499.55
2022-08-22T22:53:43.077Z,100500.73
2022-08-22T22:56:25.410Z,100504.80
2022-08-22T22:58:59.240Z,100506.73
2022-08-22T23:01:32.858Z,100510.20
2022-08-22T23:04:05.708Z,100513.73
2022-08-22T23:06:35.114Z,100513.67
2022-08-22T23:09:04.253Z,100506.66
2022-08-22T23:11:32.887Z,100509.77
2022-08-22T23:14:02.971Z,100509.63
2022-08-22T23:16:50.288Z,100504.86
2022-08-22T23:19:19.383Z,100514.29
2022-08-22T23:21:48.105Z,100517.98
2022-08-22T23:24:18.205Z,100515.25
2022-08-22T23:26:46.973Z,100515.23
2022-08-22T23:29:16.084Z,100523.33
2022-08-22T23:31:55.101Z,100526.63
2022-08-22T23:34:31.046Z,100530.14
2022-08-22T23:37:03.169Z,100532.90
2022-08-22T23:39:36.066Z,100526.16
2022-08-22T23:42:07.677Z,100523.24
2022-08-22T23:44:39.078Z,100517.38
2022-08-22T23:47:10.220Z,100517.39
2022-08-22T23:49:41.157Z,100518.80
2022-08-22T23:52:12.638Z,100517.40
2022-08-22T23:54:42.060Z,100515.92
2022-08-22T23:57:11.864Z,100519.00
2022-08-22T23:59:47.963Z,100520.98
